Time;durP1;ratioP1;P1;durP2;ratioP2;P2;SDS_P1;SDS_P2;PMS_P1;PMS_P2;Temp;Humidity;BMP_temperature;BMP_pressure;BME280_temperature;BME280_humidity;BME280_pressure;Samples;Min_cycle;Max_cycle;Signal;HPM_P1;HPM_P2
2023/04/27 00:01:10;;;;;;;;;3.00;3.00;;;;;-147.17;100.00;37363.13;4951411;28;51240;-31
2023/04/27 00:03:35;;;;;;;;;2.00;2.00;;;;;-147.17;100.00;37474.94;4949984;28;51941;-31
2023/04/27 00:06:00;;;;;;;;;2.00;1.33;;;;;-147.17;100.00;37394.50;4950934;28;51203;-31
2023/04/27 00:08:26;;;;;;;;;3.00;3.00;;;;;-147.17;100.00;37365.06;4951703;28;50919;-32
2023/04/27 00:10:51;;;;;;;;;3.00;3.00;;;;;-147.17;100.00;37380.78;4951053;28;50905;-30
2023/04/27 00:13:16;;;;;;;;;2.67;2.67;;;;;-147.17;100.00;37425.91;4951502;28;51145;-28
2023/04/27 00:15:44;;;;;;;;;2.00;2.00;;;;;-147.17;100.00;37486.72;4952524;28;51035;-29
2023/04/27 00:18:09;;;;;;;;;3.33;3.00;;;;;-147.17;100.00;37408.25;4950918;28;51100;-31
2023/04/27 00:20:34;;;;;;;;;1.33;1.33;;;;;-147.17;100.00;37425.91;4951675;28;50951;-30
2023/04/27 00:23:00;;;;;;;;;2.00;2.00;;;;;-147.17;100.00;37433.75;4950679;28;51097;-31
2023/04/27 00:25:25;;;;;;;;;2.33;2.33;;;;;-147.17;100.00;37457.28;4952318;28;50920;-29
2023/04/27 00:27:50;;;;;;;;;2.67;2.67;;;;;-147.17;100.00;37449.44;4951827;28;51242;-30
2023/04/27 00:30:16;;;;;;;;;3.00;2.67;;;;;-147.17;100.00;37370.97;4950889;28;51281;-34
2023/04/27 00:32:41;;;;;;;;;2.67;2.67;;;;;-147.17;100.00;37255.19;4941553;28;64730;-31
2023/04/27 00:35:07;;;;;;;;;3.00;2.00;;;;;-147.17;100.00;37200.25;4951185;28;51272;-32
2023/04/27 00:37:32;;;;;;;;;2.00;2.00;;;;;-147.17;100.00;37102.16;4952182;28;51174;-31
2023/04/27 00:39:57;;;;;;;;;3.00;3.00;;;;;-147.17;100.00;37147.28;4951199;28;51110;-31
2023/04/27 00:42:23;;;;;;;;;3.00;3.00;;;;;-147.17;100.00;37051.16;4950650;28;51929;-32
2023/04/27 00:44:49;;;;;;;;;2.33;2.33;;;;;-147.17;100.00;37082.53;4950495;28;51028;-31
2023/04/27 00:47:16;;;;;;;;;1.33;1.33;;;;;-147.17;100.00;37004.06;4950996;28;51172;-29
2023/04/27 00:49:41;;;;;;;;;3.00;3.00;;;;;-147.17;100.00;37043.31;4949853;28;51248;-32
2023/04/27 00:52:07;;;;;;;;;3.33;3.00;;;;;-147.17;100.00;36955.03;4950550;28;50954;-32
2023/04/27 00:54:32;;;;;;;;;1.33;1.33;;;;;-147.17;100.00;36984.44;4951381;28;50950;-31
2023/04/27 00:56:58;;;;;;;;;2.33;2.33;;;;;-147.17;100.00;36933.44;4951450;28;51128;-29
2023/04/27 00:59:24;;;;;;;;;3.67;3.00;;;;;-147.17;100.00;36921.66;4952725;28;51332;-29
2023/04/27 01:01:49;;;;;;;;;3.00;3.00;;;;;-147.17;100.00;36909.91;4949112;28;53266;-34
2023/04/27 01:04:16;;;;;;;;;2.33;2.00;;;;;-147.17;100.00;36998.19;4953941;28;51286;-30
2023/04/27 01:06:42;;;;;;;;;3.00;3.00;;;;;-147.17;100.00;36915.78;4954095;28;51119;-32
2023/04/27 01:09:08;;;;;;;;;2.00;2.00;;;;;-147.17;100.00;36845.16;4954134;28;51302;-31
2023/04/27 01:11:34;;;;;;;;;3.00;2.00;;;;;-147.17;100.00;36845.16;4952976;28;51173;-32
2023/04/27 01:14:04;;;;;;;;;2.00;2.00;;;;;-147.17;100.00;36858.88;4953557;28;50952;-30
2023/04/27 01:16:30;;;;;;;;;3.67;2.67;;;;;-147.17;100.00;36823.56;4953632;28;51264;-30
2023/04/27 01:18:56;;;;;;;;;2.33;2.33;;;;;-147.17;100.00;36862.81;4953647;28;51111;-28
2023/04/27 01:21:21;;;;;;;;;3.67;3.67;;;;;-147.17;100.00;36819.66;4953024;28;51849;-32
2023/04/27 01:23:46;;;;;;;;;3.00;3.00;;;;;-147.17;100.00;36778.47;4953822;28;51060;-32
2023/04/27 01:26:15;;;;;;;;;3.00;2.00;;;;;-147.17;100.00;36815.72;4953258;28;51215;-33
2023/04/27 01:28:40;;;;;;;;;1.00;1.00;;;;;-147.17;100.00;36835.34;4949873;28;51331;-30
2023/04/27 01:31:05;;;;;;;;;3.00;3.00;;;;;-147.17;100.00;36784.34;4944483;28;51899;-31
2023/04/27 01:33:31;;;;;;;;;2.00;1.67;;;;;-147.17;100.00;36845.16;4953660;28;51005;-29
2023/04/27 01:35:56;;;;;;;;;2.00;2.00;;;;;-147.17;100.00;36778.47;4952740;28;51100;-29
2023/04/27 01:38:23;;;;;;;;;2.00;2.00;;;;;-147.17;100.00;36819.66;4952155;28;53723;-27
2023/04/27 01:40:48;;;;;;;;;2.00;2.00;;;;;-147.17;100.00;36764.72;4954063;28;52920;-29
2023/04/27 01:43:13;;;;;;;;;2.00;2.00;;;;;-147.17;100.00;36725.50;4952301;28;51377;-30
2023/04/27 01:45:39;;;;;;;;;2.00;2.00;;;;;-147.17;100.00;36733.34;4953256;28;51861;-31
2023/04/27 01:48:05;;;;;;;;;2.00;2.00;;;;;-147.17;100.00;36737.25;4953717;28;51333;-31
2023/04/27 01:50:30;;;;;;;;;3.33;2.67;;;;;-147.17;100.00;36717.63;4949519;28;51617;-30
2023/04/27 01:52:55;;;;;;;;;1.00;1.00;;;;;-147.17;100.00;36698.03;4953238;28;51262;-31
2023/04/27 01:55:21;;;;;;;;;2.67;2.00;;;;;-147.17;100.00;36682.31;4951677;28;51247;-36
2023/04/27 01:57:46;;;;;;;;;3.67;2.00;;;;;-147.17;100.00;36641.13;4953014;28;51135;-32
2023/04/27 02:00:12;;;;;;;;;2.00;2.00;;;;;-147.17;100.00;36690.19;4952965;28;51509;-29
2023/04/27 02:02:37;;;;;;;;;2.33;2.00;;;;;-147.17;100.00;36694.09;4924308;28;51090;-31
2023/04/27 02:05:03;;;;;;;;;2.67;2.67;;;;;-147.17;100.00;36615.63;4952824;28;51296;-33
2023/04/27 02:07:28;;;;;;;;;2.33;2.00;;;;;-147.17;100.00;36588.16;4935774;28;51383;-28
2023/04/27 02:09:53;;;;;;;;;1.67;1.67;;;;;-147.17;100.00;36601.91;4953270;28;53112;-31
2023/04/27 02:12:19;;;;;;;;;1.67;1.67;;;;;-147.17;100.00;36548.94;4952349;28;50994;-29
2023/04/27 02:14:44;;;;;;;;;1.00;1.00;;;;;-147.17;100.00;36527.34;4952187;28;51076;-30
2023/04/27 02:17:10;;;;;;;;;2.00;2.00;;;;;-147.17;100.00;36529.31;4951067;28;51365;-28
2023/04/27 02:19:35;;;;;;;;;2.00;2.00;;;;;-147.17;100.00;36523.44;4952038;28;50802;-29
2023/04/27 02:22:00;;;;;;;;;2.67;2.67;;;;;-147.17;100.00;36525.41;4951699;28;51048;-31
2023/04/27 02:24:26;;;;;;;;;2.00;2.00;;;;;-147.17;100.00;36505.78;4952803;28;51147;-30
2023/04/27 02:26:51;;;;;;;;;3.00;2.67;;;;;-147.17;100.00;36497.94;4951739;28;50964;-29
2023/04/27 02:29:17;;;;;;;;;3.00;2.67;;;;;-147.17;100.00;36456.72;4952207;28;51508;-30
2023/04/27 02:31:43;;;;;;;;;2.00;2.00;;;;;-147.17;100.00;36470.47;4951672;28;51455;-31
2023/04/27 02:34:08;;;;;;;;;2.00;2.00;;;;;-147.17;100.00;36470.47;4953494;28;51283;-32
2023/04/27 02:36:33;;;;;;;;;2.00;2.00;;;;;-147.17;100.00;36495.97;4952364;28;51663;-32
2023/04/27 02:38:58;;;;;;;;;3.00;2.67;;;;;-147.17;100.00;36462.63;4952137;28;53900;-33
2023/04/27 02:41:26;;;;;;;;;2.33;2.33;;;;;-147.17;100.00;36403.78;4952421;28;50962;-31
2023/04/27 02:43:52;;;;;;;;;3.00;3.00;;;;;-147.17;100.00;36423.38;4952247;28;50933;-30
2023/04/27 02:46:17;;;;;;;;;2.67;2.67;;;;;-147.17;100.00;36397.88;4951314;28;51082;-29
2023/04/27 02:48:42;;;;;;;;;3.00;3.00;;;;;-147.17;100.00;36446.94;4952535;28;66086;-30
2023/04/27 02:51:08;;;;;;;;;2.00;2.00;;;;;-147.17;100.00;36325.31;4951438;28;51077;-34
2023/04/27 02:53:33;;;;;;;;;2.00;1.67;;;;;-147.17;100.00;36309.63;4951229;28;51090;-27
2023/04/27 02:55:58;;;;;;;;;3.00;3.00;;;;;-147.17;100.00;36372.38;4951544;28;51165;-28
2023/04/27 02:58:24;;;;;;;;;4.33;3.00;;;;;-147.17;100.00;36286.06;4949577;28;51792;-29
2023/04/27 03:00:54;;;;;;;;;2.67;2.67;;;;;-147.17;100.00;36258.63;4948315;28;51062;-31
2023/04/27 03:03:20;;;;;;;;;2.33;2.00;;;;;-147.17;100.00;36270.38;4932614;28;51191;-31
2023/04/27 03:05:45;;;;;;;;;4.00;3.00;;;;;-147.17;100.00;36213.50;4950259;28;51292;-29
2023/04/27 03:08:10;;;;;;;;;3.00;3.00;;;;;-147.17;100.00;36325.31;4949882;28;51520;-32
2023/04/27 03:10:36;;;;;;;;;3.00;2.00;;;;;-147.17;100.00;36262.53;4951455;28;59767;-29
2023/04/27 03:13:01;;;;;;;;;3.33;3.00;;;;;-147.17;100.00;36272.34;4951755;28;51112;-30
2023/04/27 03:15:26;;;;;;;;;2.67;2.00;;;;;-147.17;100.00;36290.00;4951747;28;54793;-31
2023/04/27 03:17:51;;;;;;;;;3.00;3.00;;;;;-147.17;100.00;36293.94;4951699;28;52681;-31
2023/04/27 03:20:17;;;;;;;;;2.67;2.67;;;;;-147.17;100.00;36317.47;4950251;28;59243;-31
2023/04/27 03:22:44;;;;;;;;;3.00;3.00;;;;;-147.17;100.00;36337.06;4951984;28;51137;-31
2023/04/27 03:25:10;;;;;;;;;4.00;4.00;;;;;-147.17;100.00;36309.63;4950785;28;51366;-30
2023/04/27 03:27:35;;;;;;;;;2.00;2.00;;;;;-147.17;100.00;36315.50;4951101;28;51257;-32
2023/04/27 03:30:02;;;;;;;;;3.00;3.00;;;;;-147.17;100.00;36278.22;4938670;28;51080;-32
2023/04/27 03:32:27;;;;;;;;;4.00;3.00;;;;;-147.17;100.00;36295.88;4937007;28;50979;-33
2023/04/27 03:34:53;;;;;;;;;2.67;2.67;;;;;-147.17;100.00;36217.44;4951115;28;51288;-29
2023/04/27 03:37:18;;;;;;;;;4.00;3.00;;;;;-147.17;100.00;36278.22;4950765;28;51994;-33
2023/04/27 03:39:44;;;;;;;;;3.00;2.33;;;;;-147.17;100.00;36362.56;4950578;28;51117;-28
2023/04/27 03:42:09;;;;;;;;;2.00;2.00;;;;;-147.17;100.00;36352.78;4951586;28;51366;-30
2023/04/27 03:44:35;;;;;;;;;3.00;3.00;;;;;-147.17;100.00;36356.69;4951998;28;51101;-31
2023/04/27 03:47:00;;;;;;;;;3.00;2.67;;;;;-147.17;100.00;36293.94;4952019;28;52072;-31
2023/04/27 03:49:26;;;;;;;;;3.00;3.00;;;;;-147.17;100.00;36223.31;4951836;28;51177;-33
2023/04/27 03:51:52;;;;;;;;;3.67;3.00;;;;;-147.17;100.00;36270.38;4952106;28;51012;-33
2023/04/27 03:54:17;;;;;;;;;3.67;3.67;;;;;-147.17;100.00;36331.19;4952137;28;50966;-30
2023/04/27 03:56:43;;;;;;;;;3.00;3.00;;;;;-147.17;100.00;36325.31;4951938;28;52011;-30
2023/04/27 03:59:08;;;;;;;;;5.00;3.67;;;;;-147.17;100.00;36301.78;4951749;28;50903;-31
2023/04/27 04:01:35;;;;;;;;;4.00;4.00;;;;;-147.17;100.00;36258.63;4952210;28;51085;-32
2023/04/27 04:04:00;;;;;;;;;3.33;2.00;;;;;-147.17;100.00;36386.13;4952336;28;50945;-29
2023/04/27 04:06:26;;;;;;;;;2.67;2.33;;;;;-147.17;100.00;36252.72;4951570;28;51101;-30
2023/04/27 04:08:52;;;;;;;;;3.67;3.67;;;;;-147.17;100.00;36258.63;4951967;28;51073;-30
2023/04/27 04:11:17;;;;;;;;;3.00;3.00;;;;;-147.17;100.00;36201.72;4934446;28;51027;-30
2023/04/27 04:13:43;;;;;;;;;2.00;2.00;;;;;-147.17;100.00;36252.72;4949971;28;51516;-28
2023/04/27 04:16:08;;;;;;;;;2.00;2.00;;;;;-147.17;100.00;36188.00;4950408;28;52617;-31
2023/04/27 04:18:34;;;;;;;;;3.00;3.00;;;;;-147.17;100.00;36133.09;4951841;28;51128;-30
2023/04/27 04:20:59;;;;;;;;;2.00;2.00;;;;;-147.17;100.00;36184.06;4950472;28;51307;-30
2023/04/27 04:23:26;;;;;;;;;2.33;2.33;;;;;-147.17;100.00;36205.66;4950756;28;51131;-28
2023/04/27 04:25:53;;;;;;;;;2.67;2.00;;;;;-147.17;100.00;36148.78;4951079;28;52006;-31
2023/04/27 04:28:18;;;;;;;;;2.33;2.33;;;;;-147.17;100.00;36099.75;4951298;28;51073;-30
2023/04/27 04:30:44;;;;;;;;;2.00;2.00;;;;;-147.17;100.00;36152.69;4949709;28;51855;-32
2023/04/27 04:33:09;;;;;;;;;3.67;3.00;;;;;-147.17;100.00;36097.78;4953782;28;50856;-31
2023/04/27 04:35:38;;;;;;;;;3.00;3.00;;;;;-147.17;100.00;35989.91;4954135;28;51722;-31
2023/04/27 04:38:04;;;;;;;;;1.00;1.00;;;;;-147.17;100.00;36031.09;4953570;28;51148;-31
2023/04/27 04:40:29;;;;;;;;;4.67;3.00;;;;;-147.17;100.00;35980.09;4954631;28;51228;-28
2023/04/27 04:42:54;;;;;;;;;3.00;3.00;;;;;-147.17;100.00;35974.22;4953168;28;51520;-30
2023/04/27 04:45:20;;;;;;;;;2.00;2.00;;;;;-147.17;100.00;35987.94;4953623;28;51762;-33
2023/04/27 04:47:46;;;;;;;;;3.00;2.00;;;;;-147.17;100.00;35984.00;4955189;28;50978;-30
2023/04/27 04:50:11;;;;;;;;;3.00;3.00;;;;;-147.17;100.00;35948.72;4955208;28;50990;-33
2023/04/27 04:52:37;;;;;;;;;4.00;3.67;;;;;-147.17;100.00;35956.56;4955127;28;51443;-32
2023/04/27 04:55:03;;;;;;;;;2.33;2.33;;;;;-147.17;100.00;35985.97;4952992;28;51818;-32
2023/04/27 04:57:29;;;;;;;;;3.33;2.67;;;;;-147.17;100.00;35997.75;4953863;28;51369;-32
2023/04/27 04:59:54;;;;;;;;;2.67;2.00;;;;;-147.17;100.00;35968.31;4953502;28;51143;-31
2023/04/27 05:02:20;;;;;;;;;2.00;2.00;;;;;-147.17;100.00;35976.16;4949671;28;51398;-31
2023/04/27 05:04:45;;;;;;;;;2.67;2.00;;;;;-147.17;100.00;35938.91;4954217;28;51902;-30
2023/04/27 05:07:11;;;;;;;;;2.33;2.33;;;;;-147.17;100.00;35938.91;4954619;28;51085;-29
2023/04/27 05:09:37;;;;;;;;;2.33;2.33;;;;;-147.17;100.00;35748.66;4954545;28;51089;-31
2023/04/27 05:12:02;;;;;;;;;3.00;2.00;;;;;-147.17;100.00;35870.25;4954722;28;51042;-31
2023/04/27 05:14:28;;;;;;;;;3.00;3.00;;;;;-147.17;100.00;35732.97;4954449;28;51890;-32
2023/04/27 05:16:53;;;;;;;;;3.00;2.00;;;;;-147.17;100.00;35752.56;4954614;28;50899;-30
2023/04/27 05:19:19;;;;;;;;;3.00;3.00;;;;;-147.17;100.00;35748.66;4954784;28;51382;-30
2023/04/27 05:21:45;;;;;;;;;2.33;2.33;;;;;-147.17;100.00;35748.66;4937785;28;51062;-32
2023/04/27 05:24:11;;;;;;;;;2.33;2.00;;;;;-147.17;100.00;35729.03;4954632;28;51275;-31
2023/04/27 05:26:37;;;;;;;;;2.00;2.00;;;;;-147.17;100.00;35603.53;4954395;28;51037;-30
2023/04/27 05:29:02;;;;;;;;;2.00;2.00;;;;;-147.17;100.00;35415.25;4948942;28;51078;-32
2023/04/27 05:31:28;;;;;;;;;3.67;3.33;;;;;-147.17;100.00;35258.38;4948566;28;51378;-30
2023/04/27 05:33:53;;;;;;;;;3.00;3.00;;;;;-147.17;100.00;35101.50;4954252;28;51880;-29
2023/04/27 05:36:18;;;;;;;;;4.00;3.00;;;;;-147.17;100.00;34728.94;4954085;28;51110;-31
2023/04/27 05:38:43;;;;;;;;;4.00;3.00;;;;;-147.17;100.00;34121.13;4954461;28;51026;-28
2023/04/27 05:41:09;;;;;;;;;3.00;3.00;;;;;-147.17;100.00;33340.94;4936931;28;51015;-29
2023/04/27 05:43:36;;;;;;;;;2.67;2.67;;;;;-147.17;100.00;32602.06;4952813;28;57926;-28
2023/04/27 05:46:02;;;;;;;;;2.67;2.67;;;;;-147.17;100.00;31824.16;4954159;28;51021;-31
2023/04/27 05:48:27;;;;;;;;;3.00;3.00;;;;;-147.17;100.00;31242.28;4954485;28;51396;-33
2023/04/27 05:51:02;;;;;;;;;3.00;3.00;;;;;-147.17;100.00;30719.25;4954142;28;51308;-32
2023/04/27 05:53:28;;;;;;;;;4.00;3.33;;;;;-147.17;100.00;30149.31;4954225;28;51038;-29
2023/04/27 05:55:55;;;;;;;;;3.00;3.00;;;;;-147.17;100.00;29665.59;4953711;28;50939;-31
2023/04/27 05:58:21;;;;;;;;;3.67;3.00;;;;;-147.17;100.00;29305.28;4953324;28;51029;-32
2023/04/27 06:00:46;;;;;;;;;3.33;3.33;;;;;-147.17;100.00;29054.66;4948323;28;51281;-31
2023/04/27 06:03:12;;;;;;;;;2.33;2.33;;;;;-147.17;100.00;28721.84;4943060;28;51178;-31
2023/04/27 06:05:37;;;;;;;;;3.67;3.00;;;;;-147.17;100.00;28289.19;4953798;28;50918;-29
2023/04/27 06:08:02;;;;;;;;;3.67;3.00;;;;;-147.17;100.00;28122.81;4953742;28;51090;-30
2023/04/27 06:10:28;;;;;;;;;3.00;3.00;;;;;-147.17;100.00;27909.44;4936250;28;51295;-30
2023/04/27 06:12:53;;;;;;;;;4.33;4.00;;;;;-147.17;100.00;27707.84;4953416;28;51901;-30
2023/04/27 06:15:18;;;;;;;;;4.00;4.00;;;;;-147.17;100.00;27684.38;4953627;28;51120;-32
2023/04/27 06:17:44;;;;;;;;;2.33;1.67;;;;;-147.17;100.00;27774.41;4953830;28;51242;-30
2023/04/27 06:20:10;;;;;;;;;5.00;5.00;;;;;-147.17;100.00;27872.25;4953676;28;51258;-30
2023/04/27 06:22:36;;;;;;;;;5.33;4.33;;;;;-147.17;100.00;28044.50;4953204;28;51867;-28
2023/04/27 06:25:03;;;;;;;;;7.00;6.00;;;;;-147.17;100.00;28647.44;4953294;28;50871;-32
2023/04/27 06:27:28;;;;;;;;;9.00;8.00;;;;;-147.17;100.00;29975.00;4953446;28;51365;-32
2023/04/27 06:29:53;;;;;;;;;7.00;7.00;;;;;-147.17;100.00;32462.94;4953310;28;50803;-30
2023/04/27 06:32:19;;;;;;;;;9.00;8.33;;;;;-147.17;100.00;35611.38;4953518;28;50923;-33
2023/04/27 06:34:45;;;;;;;;;6.33;5.00;;;;;-147.17;100.00;37127.66;4953235;28;51254;-30
2023/04/27 06:37:10;;;;;;;;;7.67;6.00;;;;;-147.17;100.00;38554.28;4953760;28;51101;-31
2023/04/27 06:39:36;;;;;;;;;8.33;5.33;;;;;-147.17;100.00;39337.47;4953350;28;51335;-30
2023/04/27 06:42:03;;;;;;;;;7.67;6.67;;;;;-147.17;100.00;40083.50;4953152;28;56417;-30
2023/04/27 06:44:28;;;;;;;;;7.67;7.67;;;;;-147.17;100.00;41283.34;4952907;28;51046;-29
2023/04/27 06:46:53;;;;;;;;;8.67;8.00;;;;;-147.17;100.00;41900.09;4953207;28;51003;-30
2023/04/27 06:49:19;;;;;;;;;8.00;7.00;;;;;-147.17;100.00;42336.19;4952728;28;51302;-28
2023/04/27 06:51:45;;;;;;;;;7.67;7.33;;;;;-147.17;100.00;42630.91;4952837;28;53131;-30
2023/04/27 06:54:11;;;;;;;;;14.67;12.00;;;;;-147.17;100.00;42913.81;4952563;28;51063;-29
2023/04/27 06:56:36;;;;;;;;;194.50;156.50;;;;;-147.17;100.00;43202.66;4952346;28;50807;-29
2023/04/27 06:59:01;;;;;;;;;125.33;99.67;;;;;-147.17;100.00;43304.84;4952706;28;50897;-29
2023/04/27 07:01:27;;;;;;;;;75.75;59.75;;;;;-147.17;100.00;43369.69;4952486;28;50918;-32
2023/04/27 07:03:52;;;;;;;;;71.50;53.25;;;;;-147.17;100.00;43267.50;4952457;28;51004;-29
2023/04/27 07:06:17;;;;;;;;;70.25;53.25;;;;;-147.17;100.00;43192.84;4952490;28;51630;-31
2023/04/27 07:08:43;;;;;;;;;86.33;73.33;;;;;-147.17;100.00;43063.16;4952628;28;50887;-29
2023/04/27 07:11:08;;;;;;;;;76.75;64.00;;;;;-147.17;100.00;42917.75;4952184;28;51070;-31
2023/04/27 07:13:34;;;;;;;;;100.33;87.00;;;;;-147.17;100.00;42931.50;4952388;28;50986;-31
2023/04/27 07:16:00;;;;;;;;;126.25;114.25;;;;;-147.17;100.00;42960.97;4952667;28;51038;-31
2023/04/27 07:18:27;;;;;;;;;76.33;63.67;;;;;-147.17;100.00;43367.72;4952960;28;51298;-30
2023/04/27 07:20:53;;;;;;;;;54.00;44.00;;;;;-147.17;100.00;43654.63;4952422;28;52760;-28
2023/04/27 07:23:18;;;;;;;;;34.00;31.75;;;;;-147.17;100.00;43914.06;4952242;28;51014;-29
2023/04/27 07:25:45;;;;;;;;;22.00;20.25;;;;;-147.17;100.00;44183.31;4952033;28;51080;-31
2023/04/27 07:28:10;;;;;;;;;21.25;21.00;;;;;-147.17;100.00;44297.31;4951878;28;51241;-31
2023/04/27 07:30:36;;;;;;;;;21.25;18.75;;;;;-147.17;100.00;44419.19;4941335;28;51952;-30
2023/04/27 07:33:02;;;;;;;;;20.25;17.50;;;;;-147.17;100.00;44507.63;4934512;28;51130;-29
2023/04/27 07:35:27;;;;;;;;;21.50;18.75;;;;;-147.17;100.00;44615.75;4952294;28;50965;-31
2023/04/27 07:37:52;;;;;;;;;20.33;16.33;;;;;-147.17;100.00;44515.50;4952671;28;51069;-32
2023/04/27 07:40:18;;;;;;;;;13.33;12.00;;;;;-147.17;100.00;44466.34;4952240;28;52039;-29
2023/04/27 07:42:45;;;;;;;;;12.33;10.33;;;;;-147.17;100.00;44592.16;4934363;28;51102;-30
2023/04/27 07:45:10;;;;;;;;;10.00;9.00;;;;;-147.17;100.00;44700.28;4952649;28;51088;-30
2023/04/27 07:47:37;;;;;;;;;9.00;9.00;;;;;-147.17;100.00;44859.50;4952422;28;50964;-31
2023/04/27 07:50:05;;;;;;;;;10.67;8.00;;;;;-147.17;100.00;44920.44;4951933;28;52995;-33
2023/04/27 07:52:30;;;;;;;;;8.67;8.00;;;;;-147.17;100.00;45105.25;4951864;28;50996;-30
2023/04/27 07:54:56;;;;;;;;;8.33;7.67;;;;;-147.17;100.00;45229.09;4951940;28;51505;-28
2023/04/27 07:57:21;;;;;;;;;7.00;6.67;;;;;-147.17;100.00;45256.63;4952219;28;50911;-31
2023/04/27 07:59:46;;;;;;;;;6.67;6.00;;;;;-147.17;100.00;45248.75;4952164;28;50951;-33
2023/04/27 08:02:12;;;;;;;;;5.00;5.00;;;;;-147.17;100.00;45213.38;4951567;28;58492;-31
2023/04/27 08:04:37;;;;;;;;;8.33;8.00;;;;;-147.17;100.00;45244.81;4934662;28;51347;-32
2023/04/27 08:07:02;;;;;;;;;6.67;6.67;;;;;-147.17;100.00;45246.78;4951613;28;51344;-32
2023/04/27 08:09:27;;;;;;;;;10.00;9.33;;;;;-147.17;100.00;45311.66;4951756;28;52953;-29
2023/04/27 08:11:53;;;;;;;;;10.00;8.00;;;;;-147.17;100.00;45394.25;4948751;28;50965;-30
2023/04/27 08:14:18;;;;;;;;;8.00;8.00;;;;;-147.17;100.00;45449.28;4951851;28;51351;-30
2023/04/27 08:16:43;;;;;;;;;10.33;9.00;;;;;-147.17;100.00;45463.06;4951997;28;50877;-33
2023/04/27 08:19:10;;;;;;;;;10.00;10.00;;;;;-147.17;100.00;45457.16;4951046;28;60871;-30
2023/04/27 08:21:36;;;;;;;;;8.00;8.00;;;;;-147.17;100.00;45311.66;4951745;28;51189;-31
2023/04/27 08:24:02;;;;;;;;;8.00;7.00;;;;;-147.17;100.00;45303.81;4951882;28;51029;-32
2023/04/27 08:26:28;;;;;;;;;6.33;6.00;;;;;-147.17;100.00;45368.69;4952271;28;51037;-32
2023/04/27 08:28:55;;;;;;;;;6.67;6.33;;;;;-147.17;100.00;45356.88;4951187;28;56773;-30
2023/04/27 08:31:20;;;;;;;;;6.00;5.67;;;;;-147.17;100.00;45368.69;4951798;28;51128;-32
2023/04/27 08:33:46;;;;;;;;;6.00;5.00;;;;;-147.17;100.00;45408.00;4951689;28;51125;-29
2023/04/27 08:36:11;;;;;;;;;6.00;6.00;;;;;-147.17;100.00;45345.09;4951799;28;50879;-28
2023/04/27 08:38:36;;;;;;;;;5.33;5.33;;;;;-147.17;100.00;45233.03;4950893;28;63055;-31
2023/04/27 08:41:02;;;;;;;;;7.00;6.00;;;;;-147.17;100.00;45205.50;4951894;28;51022;-31
2023/04/27 08:43:32;;;;;;;;;5.00;5.00;;;;;-147.17;100.00;45099.34;4934052;28;50984;-31
2023/04/27 08:45:58;;;;;;;;;5.33;5.33;;;;;-147.17;100.00;45044.28;4951985;28;51185;-31
2023/04/27 08:48:23;;;;;;;;;4.67;4.33;;;;;-147.17;100.00;44955.81;4951154;28;51809;-28
2023/04/27 08:50:50;;;;;;;;;4.00;4.00;;;;;-147.17;100.00;44847.72;4951193;28;51157;-29
2023/04/27 08:53:17;;;;;;;;;5.00;4.00;;;;;-147.17;100.00;44804.47;4951135;28;51020;-31
2023/04/27 08:55:42;;;;;;;;;5.00;4.00;;;;;-147.17;100.00;44676.69;4933579;28;51237;-29
2023/04/27 08:58:08;;;;;;;;;5.00;5.00;;;;;-147.17;100.00;44562.69;4949574;28;64999;-32
2023/04/27 09:00:40;;;;;;;;;5.33;5.00;;;;;-147.17;100.00;44456.53;4950948;28;51107;-31
2023/04/27 09:03:07;;;;;;;;;4.00;4.00;;;;;-147.17;100.00;44336.63;4939038;28;51109;-35
2023/04/27 09:05:32;;;;;;;;;6.00;5.67;;;;;-147.17;100.00;44277.66;4951034;28;50986;-31
2023/04/27 09:08:00;;;;;;;;;6.00;6.00;;;;;-147.17;100.00;44197.06;4950758;28;51702;-31
2023/04/27 09:10:27;;;;;;;;;4.67;4.33;;;;;-147.17;100.00;44083.09;4950661;28;51149;-32
2023/04/27 09:12:58;;;;;;;;;4.00;4.00;;;;;-147.17;100.00;44002.50;4950751;28;50991;-32
2023/04/27 09:15:24;;;;;;;;;4.67;3.67;;;;;-147.17;100.00;43927.81;4950850;28;51102;-31
2023/04/27 09:17:54;;;;;;;;;3.67;3.00;;;;;-147.17;100.00;43853.13;4951261;28;51288;-29
2023/04/27 09:20:19;;;;;;;;;4.00;4.00;;;;;-147.17;100.00;43725.38;4953968;28;51010;-30
2023/04/27 09:22:47;;;;;;;;;4.00;4.00;;;;;-147.17;100.00;43693.94;4954289;28;51161;-31
2023/04/27 09:25:22;;;;;;;;;3.33;3.33;;;;;-147.17;100.00;43570.13;4954618;28;51011;-32
2023/04/27 09:27:47;;;;;;;;;4.00;4.00;;;;;-147.17;100.00;43536.72;4954068;28;51857;-29
2023/04/27 09:30:13;;;;;;;;;5.33;5.00;;;;;-147.17;100.00;43401.13;4945743;28;56711;-34
2023/04/27 09:32:39;;;;;;;;;5.67;4.00;;;;;-147.17;100.00;43377.56;4954703;28;50872;-31
2023/04/27 09:35:20;;;;;;;;;4.00;4.00;;;;;-147.17;100.00;43326.47;4954446;28;51384;-31
2023/04/27 09:37:46;;;;;;;;;4.67;4.67;;;;;-147.17;100.00;43304.84;4953872;28;52182;-32
2023/04/27 09:40:12;;;;;;;;;4.00;4.00;;;;;-147.17;100.00;43139.78;4954186;28;50950;-32
2023/04/27 09:42:38;;;;;;;;;4.67;4.00;;;;;-147.17;100.00;43100.50;4954022;28;50852;-30
2023/04/27 09:45:05;;;;;;;;;3.67;3.67;;;;;-147.17;100.00;43039.56;4954295;28;51335;-32
2023/04/27 09:47:32;;;;;;;;;4.33;4.33;;;;;-147.17;100.00;43010.09;4954111;28;51108;-29
2023/04/27 09:49:58;;;;;;;;;5.00;5.00;;;;;-147.17;100.00;42974.72;4954019;28;50980;-29
2023/04/27 09:52:25;;;;;;;;;4.00;3.00;;;;;-147.17;100.00;42880.41;4953637;28;51137;-27
2023/04/27 09:54:54;;;;;;;;;3.67;3.67;;;;;-147.17;100.00;42874.53;4953934;28;51258;-31
2023/04/27 09:57:36;;;;;;;;;5.67;5.33;;;;;-147.17;100.00;42786.09;4953420;28;52024;-29
2023/04/27 10:00:19;;;;;;;;;3.67;3.67;;;;;-147.17;100.00;42731.09;4953463;28;50993;-29
2023/04/27 10:02:52;;;;;;;;;5.00;5.00;;;;;-147.17;100.00;42646.63;4916760;28;50982;-32
2023/04/27 10:05:28;;;;;;;;;3.67;3.00;;;;;-147.17;100.00;42542.47;4944846;28;51343;-31
2023/04/27 10:07:53;;;;;;;;;5.00;5.00;;;;;-147.17;100.00;42524.81;4953018;28;51040;-30
2023/04/27 10:10:19;;;;;;;;;5.00;4.00;;;;;-147.17;100.00;42408.88;4953186;28;50985;-29
2023/04/27 10:12:59;;;;;;;;;7.00;7.00;;;;;-147.17;100.00;42294.94;4950076;28;51280;-31
2023/04/27 10:15:29;;;;;;;;;4.00;4.00;;;;;-147.17;100.00;42159.38;4953959;28;51050;-32
2023/04/27 10:17:57;;;;;;;;;11.00;6.33;;;;;-147.17;100.00;42069.03;4953396;28;51735;-32
2023/04/27 10:20:31;;;;;;;;;7.00;5.00;;;;;-147.17;100.00;42021.88;4953055;28;51211;-30
2023/04/27 10:22:57;;;;;;;;;6.00;5.67;;;;;-147.17;100.00;41825.44;4953405;28;51093;-29
2023/04/27 10:25:37;;;;;;;;;8.67;6.67;;;;;-147.17;100.00;41672.22;4953602;28;51185;-31
2023/04/27 10:28:03;;;;;;;;;6.00;6.00;;;;;-147.17;100.00;41469.91;4952859;28;51866;-33
2023/04/27 10:30:37;;;;;;;;;6.00;5.00;;;;;-147.17;100.00;41196.91;4951320;28;50971;-32
2023/04/27 10:33:16;;;;;;;;;7.67;7.33;;;;;-147.17;100.00;41020.16;4953367;28;51109;-30
2023/04/27 10:35:44;;;;;;;;;7.67;6.33;;;;;-147.17;100.00;40902.34;4953349;28;51047;-31
2023/04/27 10:38:16;;;;;;;;;9.00;8.00;;;;;-147.17;100.00;40778.59;4953060;28;52001;-34
2023/04/27 10:40:44;;;;;;;;;10.67;7.33;;;;;-147.17;100.00;40704.00;4952148;28;51073;-30
2023/04/27 10:43:11;;;;;;;;;7.00;7.00;;;;;-147.17;100.00;40605.81;4952698;28;51037;-32
2023/04/27 10:45:37;;;;;;;;;7.33;6.67;;;;;-147.17;100.00;40590.09;4953479;28;51378;-32
2023/04/27 10:48:04;;;;;;;;;7.33;6.00;;;;;-147.17;100.00;40772.72;4952368;28;53052;-32
2023/04/27 10:50:30;;;;;;;;;8.33;8.00;;;;;-147.17;100.00;41084.97;4952508;28;51109;-30
2023/04/27 10:53:03;;;;;;;;;7.33;6.00;;;;;-147.17;100.00;41348.16;4952751;28;50937;-33
2023/04/27 10:55:30;;;;;;;;;7.67;6.33;;;;;-147.17;100.00;41444.38;4953028;28;50923;-32
2023/04/27 10:57:55;;;;;;;;;9.00;7.00;;;;;-147.17;100.00;41361.91;4952287;28;51764;-29
2023/04/27 11:00:32;;;;;;;;;9.33;8.00;;;;;-147.17;100.00;41126.22;4953036;28;51051;-30
2023/04/27 11:03:13;;;;;;;;;7.67;7.00;;;;;-147.17;100.00;40973.03;4953374;28;50849;-30